Time;durP1;ratioP1;P1;durP2;ratioP2;P2;SDS_P1;SDS_P2;PMS_P1;PMS_P2;Temp;Humidity;BMP_temperature;BMP_pressure;BME280_temperature;BME280_humidity;BME280_pressure;Samples;Min_cycle;Max_cycle;Signal;HPM_P1;HPM_P2
2021/12/04 00:01:52;;;;;;;33.40;22.48;;;4.90;99.90;;;;;;4963412;28;20072;-82
2021/12/04 00:04:23;;;;;;;34.78;21.77;;;4.90;99.90;;;;;;4969099;28;20766;-83
2021/12/04 00:06:49;;;;;;;33.92;22.20;;;4.90;99.90;;;;;;4965033;28;20410;-83
2021/12/04 00:09:17;;;;;;;33.00;21.58;;;4.90;99.90;;;;;;4962209;28;20871;-82
2021/12/04 00:11:52;;;;;;;34.47;21.52;;;4.90;99.90;;;;;;4965353;28;20064;-83
2021/12/04 00:14:37;;;;;;;29.75;20.42;;;4.90;99.90;;;;;;4965572;28;20052;-82
2021/12/04 00:17:04;;;;;;;33.08;21.17;;;4.90;99.90;;;;;;4965163;28;20121;-82
2021/12/04 00:19:31;;;;;;;31.35;20.98;;;4.80;99.90;;;;;;4962913;28;20044;-83
2021/12/04 00:21:58;;;;;;;26.98;19.83;;;4.90;99.90;;;;;;4961599;28;20052;-82
2021/12/04 00:24:25;;;;;;;27.88;19.67;;;4.90;99.90;;;;;;4961352;28;20048;-83
2021/12/04 00:26:51;;;;;;;27.80;19.98;;;4.80;99.90;;;;;;4971275;28;20040;-83
2021/12/04 00:29:18;;;;;;;27.95;20.08;;;4.90;99.90;;;;;;4946665;28;20497;-83
2021/12/04 00:31:49;;;;;;;25.80;19.08;;;4.90;99.90;;;;;;4979457;28;20047;-83
2021/12/04 00:34:17;;;;;;;25.58;19.17;;;4.80;99.90;;;;;;4984598;28;20133;-83
2021/12/04 00:50:10;;;;;;;22.58;16.58;;;4.90;99.90;;;;;;4988876;28;20084;-83
2021/12/04 00:52:37;;;;;;;22.95;16.85;;;4.90;99.90;;;;;;4974966;28;20086;-83
2021/12/04 00:55:05;;;;;;;22.45;17.05;;;4.90;99.90;;;;;;4962874;28;20143;-83
2021/12/04 00:57:32;;;;;;;22.40;16.90;;;4.90;99.90;;;;;;4971611;28;20051;-82
2021/12/04 00:59:58;;;;;;;23.75;16.73;;;4.90;99.90;;;;;;4964929;28;20052;-83
2021/12/04 01:02:24;;;;;;;21.60;16.63;;;4.90;99.90;;;;;;4964817;28;20040;-83
2021/12/04 01:04:50;;;;;;;21.42;16.38;;;4.90;99.90;;;;;;4991378;28;20057;-83
2021/12/04 01:07:17;;;;;;;20.98;16.15;;;4.90;99.90;;;;;;4969515;28;20533;-83
2021/12/04 01:09:43;;;;;;;21.90;16.05;;;4.80;99.90;;;;;;4966535;28;20137;-82
2021/12/04 01:12:10;;;;;;;20.25;15.73;;;4.80;99.90;;;;;;4970437;28;20131;-83
2021/12/04 01:14:36;;;;;;;19.88;15.48;;;4.90;99.90;;;;;;4989863;28;20058;-83
2021/12/04 01:17:03;;;;;;;19.75;15.40;;;4.90;99.90;;;;;;4958369;28;20044;-84
2021/12/04 01:19:30;;;;;;;19.85;16.27;;;4.90;99.90;;;;;;4984157;28;20075;-83
2021/12/04 01:21:57;;;;;;;18.45;14.60;;;4.90;99.90;;;;;;4986551;28;20553;-83
2021/12/04 01:24:24;;;;;;;19.92;14.80;;;4.80;99.90;;;;;;4971069;28;20048;-83
2021/12/04 01:26:50;;;;;;;17.20;14.13;;;4.90;99.90;;;;;;4974369;28;20044;-84
2021/12/04 01:29:17;;;;;;;18.23;13.82;;;4.90;99.90;;;;;;4968466;28;20459;-83
2021/12/04 01:31:44;;;;;;;17.10;13.85;;;4.80;99.90;;;;;;4968658;28;20049;-83
2021/12/04 01:34:09;;;;;;;17.00;13.55;;;4.80;99.90;;;;;;4971394;28;20511;-82
2021/12/04 01:36:36;;;;;;;18.83;13.77;;;4.90;99.90;;;;;;4969757;28;20061;-83
2021/12/04 01:39:04;;;;;;;15.75;13.63;;;4.90;99.90;;;;;;4969785;28;20051;-83
2021/12/04 01:41:32;;;;;;;16.58;12.73;;;4.90;99.90;;;;;;4969766;28;20251;-83
2021/12/04 01:43:59;;;;;;;15.93;13.25;;;4.90;99.90;;;;;;4953719;28;20672;-83
2021/12/04 01:46:27;;;;;;;16.75;13.52;;;4.80;99.90;;;;;;4969623;28;20049;-83
2021/12/04 01:48:53;;;;;;;16.58;13.65;;;4.90;99.90;;;;;;4969687;28;20076;-83
2021/12/04 01:51:19;;;;;;;15.63;12.43;;;4.80;99.90;;;;;;4971609;28;20058;-82
2021/12/04 01:53:45;;;;;;;15.98;13.73;;;4.80;99.90;;;;;;4967113;28;20044;-83
2021/12/04 01:56:11;;;;;;;16.85;13.95;;;4.90;99.90;;;;;;4974906;28;20052;-83
2021/12/04 01:58:38;;;;;;;16.67;13.80;;;4.80;99.90;;;;;;4969455;28;20202;-82
2021/12/04 02:01:04;;;;;;;17.13;14.30;;;4.90;99.90;;;;;;4956128;28;20516;-82
2021/12/04 02:03:30;;;;;;;18.20;14.95;;;4.90;99.90;;;;;;4971183;28;20132;-83
2021/12/04 02:05:56;;;;;;;17.27;14.00;;;4.90;99.90;;;;;;4971839;28;20167;-83
2021/12/04 02:08:23;;;;;;;18.23;14.30;;;4.90;99.90;;;;;;4949692;28;20044;-83
2021/12/04 02:10:53;;;;;;;16.75;14.10;;;4.80;99.90;;;;;;4968624;28;20408;-82
2021/12/04 02:13:22;;;;;;;18.83;14.40;;;4.80;99.90;;;;;;4972943;28;20048;-83
2021/12/04 02:15:49;;;;;;;16.60;14.00;;;4.80;99.90;;;;;;4966245;28;20041;-83
2021/12/04 02:18:17;;;;;;;15.75;13.13;;;4.80;99.90;;;;;;4970187;28;20045;-83
2021/12/04 02:20:43;;;;;;;14.77;12.65;;;4.80;99.90;;;;;;4974422;28;20048;-84
2021/12/04 02:23:09;;;;;;;15.82;12.77;;;4.80;99.90;;;;;;4956078;28;20450;-83
2021/12/04 02:25:36;;;;;;;15.80;13.10;;;4.80;99.90;;;;;;4988477;28;20436;-83
2021/12/04 02:28:04;;;;;;;15.07;13.10;;;4.90;99.90;;;;;;4971216;28;20048;-84
2021/12/04 02:30:34;;;;;;;14.88;12.07;;;4.80;99.90;;;;;;4969405;28;20078;-83
2021/12/04 02:33:00;;;;;;;14.35;12.18;;;4.80;99.90;;;;;;4967149;28;20143;-83
2021/12/04 02:35:27;;;;;;;16.67;12.32;;;4.80;99.90;;;;;;4975647;28;20059;-83
2021/12/04 02:37:54;;;;;;;15.70;12.10;;;4.90;99.90;;;;;;4963982;28;20931;-83
2021/12/04 02:40:22;;;;;;;14.82;12.48;;;4.80;99.90;;;;;;4988251;28;20397;-83
2021/12/04 02:42:49;;;;;;;14.45;11.98;;;4.80;99.90;;;;;;4962797;28;20052;-83
2021/12/04 02:45:16;;;;;;;15.25;12.45;;;4.80;99.90;;;;;;4968326;28;20475;-83
2021/12/04 02:47:41;;;;;;;14.32;11.57;;;4.80;99.90;;;;;;4969722;28;20056;-82
2021/12/04 02:50:10;;;;;;;14.32;11.57;;;4.90;99.90;;;;;;4948206;28;20052;-82
2021/12/04 02:52:37;;;;;;;15.20;11.77;;;4.80;99.90;;;;;;4963966;28;20439;-83
2021/12/04 02:55:04;;;;;;;14.82;12.10;;;4.80;99.90;;;;;;4983524;28;20446;-83
2021/12/04 02:57:31;;;;;;;14.07;11.43;;;4.70;99.90;;;;;;4968098;28;20339;-82
2021/12/04 02:59:56;;;;;;;16.27;11.43;;;4.70;99.90;;;;;;4982190;28;20463;-83
2021/12/04 03:02:24;;;;;;;14.30;11.48;;;4.70;99.90;;;;;;4966771;28;20048;-83
2021/12/04 03:04:52;;;;;;;14.30;11.88;;;4.80;99.90;;;;;;4961634;28;22612;-83
2021/12/04 03:07:19;;;;;;;15.27;12.07;;;4.70;99.90;;;;;;4963085;28;20063;-83
2021/12/04 03:09:45;;;;;;;13.90;11.55;;;4.70;99.90;;;;;;4966159;28;20397;-83
2021/12/04 03:12:12;;;;;;;14.82;12.05;;;4.80;99.90;;;;;;4985116;28;20216;-83
2021/12/04 03:14:38;;;;;;;15.45;11.80;;;4.80;99.90;;;;;;4963082;28;20864;-83
2021/12/04 03:17:05;;;;;;;17.05;12.52;;;4.80;99.90;;;;;;4952714;28;20477;-84
2021/12/04 03:19:32;;;;;;;17.45;12.30;;;4.70;99.90;;;;;;4952565;28;20713;-83
2021/12/04 03:21:58;;;;;;;16.73;12.73;;;4.70;99.90;;;;;;4933700;28;20075;-83
2021/12/04 03:24:25;;;;;;;15.88;12.48;;;4.70;99.90;;;;;;4978512;28;20040;-82
2021/12/04 03:26:51;;;;;;;17.27;13.20;;;4.80;99.90;;;;;;4977253;28;20063;-82
2021/12/04 03:29:21;;;;;;;16.05;12.50;;;4.80;99.90;;;;;;4954965;28;20155;-83
2021/12/04 03:32:24;;;;;;;17.05;12.82;;;4.70;99.90;;;;;;4960044;28;20056;-83
2021/12/04 03:40:36;;;;;;;16.67;12.90;;;4.70;99.90;;;;;;4974528;28;20056;-83
2021/12/04 03:43:04;;;;;;;16.80;12.75;;;4.70;99.90;;;;;;4958533;28;22395;-82
2021/12/04 03:45:32;;;;;;;17.95;13.00;;;4.80;99.90;;;;;;4967730;28;20056;-83
2021/12/04 03:48:06;;;;;;;18.42;13.48;;;4.70;99.90;;;;;;4976349;28;20048;-84
2021/12/04 03:50:32;;;;;;;;;;;4.70;99.90;;;;;;4974155;28;20052;-83
2021/12/04 03:52:58;;;;;;;16.67;12.07;;;4.80;99.90;;;;;;4963570;28;19967;-83
2021/12/04 03:55:25;;;;;;;17.98;13.23;;;4.70;99.90;;;;;;4975205;28;20056;-83
2021/12/04 03:57:51;;;;;;;16.75;12.55;;;4.70;99.90;;;;;;4967878;28;20048;-83
2021/12/04 04:00:23;;;;;;;17.25;12.75;;;4.80;99.90;;;;;;4963491;28;20560;-83
2021/12/04 04:02:49;;;;;;;15.85;12.10;;;4.70;99.90;;;;;;4973938;28;20040;-83
2021/12/04 04:05:15;;;;;;;18.52;13.00;;;4.80;99.90;;;;;;4961206;28;20886;-83
2021/12/04 04:07:40;;;;;;;17.42;12.95;;;4.70;99.90;;;;;;4958404;28;20055;-82
2021/12/04 04:10:07;;;;;;;17.63;12.75;;;4.70;99.90;;;;;;4981993;28;20189;-83
2021/12/04 04:12:33;;;;;;;16.20;12.60;;;4.80;99.90;;;;;;4959039;28;20060;-83
2021/12/04 04:14:59;;;;;;;16.92;12.48;;;4.80;99.90;;;;;;4966248;28;20049;-83
2021/12/04 04:17:30;;;;;;;15.52;12.43;;;4.80;99.90;;;;;;4944412;28;20664;-83
2021/12/04 04:19:56;;;;;;;16.95;12.75;;;4.80;99.90;;;;;;4966257;28;20395;-83
2021/12/04 04:22:22;;;;;;;16.40;12.00;;;4.80;99.90;;;;;;4953095;28;20480;-83
2021/12/04 04:24:48;;;;;;;16.67;12.65;;;4.80;99.90;;;;;;4963247;28;20379;-83
2021/12/04 04:27:13;;;;;;;15.52;12.20;;;4.70;99.90;;;;;;4953139;28;20131;-83
2021/12/04 04:29:39;;;;;;;16.05;12.60;;;4.80;99.90;;;;;;4948294;28;20239;-83
2021/12/04 04:32:05;;;;;;;15.88;12.10;;;4.80;99.90;;;;;;4967091;28;20090;-82
2021/12/04 04:34:36;;;;;;;16.13;12.40;;;4.80;99.90;;;;;;4962719;28;20136;-82
2021/12/04 04:37:23;;;;;;;15.35;12.20;;;4.80;99.90;;;;;;4970532;28;20056;-83
2021/12/04 05:12:30;;;;;;;17.73;13.90;;;4.80;99.90;;;;;;4964682;28;20049;-83
2021/12/04 05:14:58;;;;;;;16.95;13.90;;;4.80;99.90;;;;;;4965521;28;20399;-83
2021/12/04 05:17:52;;;;;;;18.90;13.73;;;4.90;99.90;;;;;;4964020;28;20052;-84
2021/12/04 05:20:37;;;;;;;17.80;13.88;;;4.90;99.90;;;;;;4963222;28;20084;-82
2021/12/04 05:23:03;;;;;;;18.60;14.52;;;4.90;99.90;;;;;;4985065;28;20131;-83
2021/12/04 05:25:31;;;;;;;18.88;14.82;;;4.90;99.90;;;;;;4960966;28;20062;-83
2021/12/04 05:27:57;;;;;;;20.10;15.50;;;4.90;99.90;;;;;;4983411;28;20822;-83
2021/12/04 05:30:23;;;;;;;20.90;15.55;;;4.80;99.90;;;;;;4958089;28;20086;-82
2021/12/04 05:32:48;;;;;;;21.38;15.57;;;4.90;99.90;;;;;;4980105;28;20409;-83
2021/12/04 05:35:14;;;;;;;20.42;15.63;;;4.90;99.90;;;;;;4961091;28;20054;-83
2021/12/04 05:37:40;;;;;;;21.00;15.48;;;4.90;99.90;;;;;;4960550;28;20050;-82
2021/12/04 05:40:10;;;;;;;20.25;15.25;;;4.80;99.90;;;;;;4981414;28;20249;-82
2021/12/04 05:42:36;;;;;;;22.27;16.42;;;4.90;99.90;;;;;;4966273;28;20224;-82
2021/12/04 05:45:04;;;;;;;21.95;15.93;;;4.80;99.90;;;;;;4945627;28;20869;-82
2021/12/04 05:47:37;;;;;;;22.58;15.20;;;4.80;99.90;;;;;;4980417;28;20055;-82
2021/12/04 05:55:19;;;;;;;22.10;15.00;;;4.90;99.90;;;;;;4967338;28;20064;-82
2021/12/04 05:57:45;;;;;;;21.47;15.77;;;4.80;99.90;;;;;;4960905;28;20052;-82
2021/12/04 06:00:17;;;;;;;23.20;15.82;;;4.80;99.90;;;;;;4982855;28;20933;-82
2021/12/04 06:02:43;;;;;;;25.23;15.85;;;4.90;99.90;;;;;;4964959;28;20102;-82
2021/12/04 06:05:09;;;;;;;23.92;16.15;;;4.80;99.90;;;;;;4983797;28;20420;-82
2021/12/04 06:07:35;;;;;;;24.40;15.98;;;4.90;99.90;;;;;;4951321;28;20052;-82
2021/12/04 06:10:01;;;;;;;23.38;15.70;;;4.90;99.90;;;;;;4970427;28;20106;-81
2021/12/04 06:12:26;;;;;;;22.65;15.85;;;4.80;99.90;;;;;;4970183;28;20434;-82
2021/12/04 06:14:52;;;;;;;20.55;15.70;;;4.90;99.90;;;;;;4964275;28;20067;-82
2021/12/04 06:17:19;;;;;;;20.52;15.63;;;4.90;99.90;;;;;;4963080;28;20052;-82
2021/12/04 06:22:37;;;;;;;22.35;15.10;;;4.90;99.90;;;;;;4978902;28;20691;-82
2021/12/04 06:25:06;;;;;;;22.67;15.80;;;4.80;99.90;;;;;;4965011;28;20119;-82
2021/12/04 06:27:31;;;;;;;20.35;15.25;;;4.90;99.90;;;;;;4948054;28;20715;-82
2021/12/04 06:29:57;;;;;;;21.63;15.60;;;4.90;99.90;;;;;;4980605;28;20127;-82
2021/12/04 06:32:23;;;;;;;20.98;14.82;;;4.90;99.90;;;;;;4962664;28;20044;-82
2021/12/04 06:34:49;;;;;;;20.88;15.25;;;4.90;99.90;;;;;;4980320;28;20361;-82
2021/12/04 06:37:15;;;;;;;22.65;14.93;;;4.90;99.90;;;;;;4966509;28;20048;-82
2021/12/04 06:39:42;;;;;;;22.73;15.10;;;4.90;99.90;;;;;;4983768;28;20044;-83
2021/12/04 06:42:08;;;;;;;20.52;15.50;;;4.90;99.90;;;;;;4946414;28;20049;-82
2021/12/04 06:44:34;;;;;;;20.23;15.10;;;5.00;99.90;;;;;;4950574;28;21963;-82
2021/12/04 06:47:00;;;;;;;19.77;14.65;;;4.90;99.90;;;;;;4985469;28;20147;-82
2021/12/04 06:49:34;;;;;;;22.25;15.65;;;5.00;99.90;;;;;;4967461;28;20047;-82
2021/12/04 06:52:03;;;;;;;19.50;14.52;;;4.90;99.90;;;;;;4958793;28;20070;-82
2021/12/04 06:54:35;;;;;;;20.90;15.27;;;5.00;99.90;;;;;;4930830;28;21076;-82
2021/12/04 06:57:03;;;;;;;20.65;14.90;;;4.90;99.90;;;;;;4948823;28;20109;-83
2021/12/04 06:59:32;;;;;;;27.73;15.98;;;5.00;99.90;;;;;;4970221;28;20097;-83
2021/12/04 07:01:58;;;;;;;25.38;16.25;;;5.00;99.90;;;;;;4972772;28;20070;-83
2021/12/04 07:04:29;;;;;;;22.52;15.57;;;5.10;99.90;;;;;;4959954;28;20498;-83
2021/12/04 07:06:55;;;;;;;25.73;16.75;;;5.10;99.90;;;;;;4984578;28;20312;-82
2021/12/04 07:09:21;;;;;;;25.92;16.17;;;5.00;99.90;;;;;;4967727;28;20883;-82
2021/12/04 07:11:47;;;;;;;27.92;15.95;;;5.00;99.90;;;;;;4982366;28;20174;-83
2021/12/04 07:14:13;;;;;;;27.02;15.75;;;5.00;99.90;;;;;;4941370;28;20048;-82
2021/12/04 07:16:39;;;;;;;29.63;16.35;;;5.10;99.90;;;;;;4983352;28;20512;-82
2021/12/04 07:19:05;;;;;;;29.33;16.73;;;5.00;99.90;;;;;;4957915;28;20054;-82
2021/12/04 07:21:31;;;;;;;27.73;17.17;;;5.00;99.90;;;;;;4964606;28;20563;-82
2021/12/04 07:23:57;;;;;;;34.55;17.45;;;5.10;99.90;;;;;;4961435;28;20056;-83
2021/12/04 07:26:23;;;;;;;32.13;16.20;;;5.00;99.90;;;;;;4961227;28;20098;-82
2021/12/04 07:28:48;;;;;;;31.00;16.92;;;5.10;99.90;;;;;;4961014;28;20048;-83
2021/12/04 07:31:14;;;;;;;34.35;17.45;;;5.10;99.90;;;;;;4961931;28;20090;-82
2021/12/04 07:33:40;;;;;;;33.53;18.02;;;5.10;99.90;;;;;;4956012;28;20094;-82
2021/12/04 07:36:06;;;;;;;33.25;18.88;;;5.10;99.90;;;;;;4978768;28;20383;-81
2021/12/04 07:38:32;;;;;;;33.85;18.90;;;5.10;99.90;;;;;;4980628;28;20490;-81
2021/12/04 07:41:00;;;;;;;36.08;18.60;;;5.00;99.90;;;;;;4981711;28;20052;-82
2021/12/04 07:43:27;;;;;;;34.58;19.10;;;5.10;99.90;;;;;;4957726;28;20560;-82
2021/12/04 07:45:53;;;;;;;34.80;18.48;;;5.10;99.90;;;;;;4964737;28;20041;-82
2021/12/04 07:48:19;;;;;;;38.30;18.38;;;5.10;99.90;;;;;;4960214;28;20822;-82
2021/12/04 07:50:45;;;;;;;45.00;19.02;;;5.20;99.90;;;;;;4957716;28;20063;-82
2021/12/04 07:53:11;;;;;;;35.45;19.65;;;5.10;99.90;;;;;;4981601;28;20045;-82
2021/12/04 07:55:37;;;;;;;43.42;18.73;;;5.10;99.90;;;;;;4967882;28;20133;-81
2021/12/04 07:58:03;;;;;;;37.42;19.15;;;5.20;99.90;;;;;;4962612;28;20059;-82
2021/12/04 08:00:30;;;;;;;38.22;19.20;;;5.20;99.90;;;;;;4979063;28;20052;-82
2021/12/04 08:02:56;;;;;;;39.65;18.90;;;5.30;99.90;;;;;;4952515;28;20460;-82
2021/12/04 08:05:22;;;;;;;37.42;18.17;;;5.30;99.90;;;;;;4981359;28;20571;-81
2021/12/04 08:07:48;;;;;;;39.72;19.33;;;5.30;99.90;;;;;;4963579;28;20063;-81
2021/12/04 08:10:17;;;;;;;37.13;18.63;;;5.30;99.90;;;;;;4962296;28;20056;-82
2021/12/04 08:12:44;;;;;;;36.88;18.83;;;5.30;99.90;;;;;;4962004;28;20044;-81
2021/12/04 08:15:11;;;;;;;37.47;18.75;;;5.40;99.90;;;;;;4979456;28;20469;-81
2021/12/04 08:17:38;;;;;;;34.10;18.95;;;5.30;99.90;;;;;;4970073;28;20084;-82
2021/12/04 08:20:05;;;;;;;36.92;17.95;;;5.40;99.90;;;;;;4973449;28;20056;-81
2021/12/04 08:22:34;;;;;;;31.85;17.90;;;5.40;99.90;;;;;;4952606;28;20945;-80
2021/12/04 08:25:00;;;;;;;31.13;17.67;;;5.50;99.90;;;;;;4975281;28;21052;-82
2021/12/04 08:27:26;;;;;;;32.45;18.10;;;5.50;99.90;;;;;;4979148;28;20044;-81
2021/12/04 08:29:52;;;;;;;35.00;18.88;;;5.50;99.90;;;;;;4959607;28;20098;-82
2021/12/04 08:32:17;;;;;;;31.75;17.75;;;5.50;99.90;;;;;;4973941;28;20125;-80
2021/12/04 08:34:43;;;;;;;28.58;18.08;;;5.50;99.90;;;;;;4980421;28;20157;-82
2021/12/04 08:37:09;;;;;;;40.97;19.20;;;5.50;99.90;;;;;;4976116;28;20292;-82
2021/12/04 08:39:35;;;;;;;34.53;18.27;;;5.40;99.90;;;;;;4957410;28;20834;-82
2021/12/04 08:42:01;;;;;;;37.58;19.38;;;5.40;99.90;;;;;;4949177;28;20052;-82
2021/12/04 08:44:29;;;;;;;43.67;20.02;;;5.40;99.90;;;;;;4963826;28;20105;-81
2021/12/04 08:46:55;;;;;;;37.40;18.63;;;5.40;99.90;;;;;;4960510;28;20048;-82
2021/12/04 08:49:21;;;;;;;37.40;17.75;;;5.40;99.90;;;;;;4960750;28;20501;-82
2021/12/04 08:51:46;;;;;;;36.88;18.38;;;5.40;99.90;;;;;;4964653;28;20059;-82
2021/12/04 08:54:13;;;;;;;43.10;18.95;;;5.40;99.90;;;;;;4963868;28;20079;-81
2021/12/04 08:56:39;;;;;;;34.88;19.00;;;5.40;99.90;;;;;;4976788;28;20052;-82
2021/12/04 08:59:07;;;;;;;45.78;20.65;;;5.50;99.90;;;;;;4961422;28;20040;-82
2021/12/04 09:01:35;;;;;;;45.28;19.00;;;5.50;99.90;;;;;;4974593;28;21027;-82
2021/12/04 09:04:16;;;;;;;39.97;18.88;;;5.50;99.90;;;;;;4960170;28;20063;-81
2021/12/04 09:06:42;;;;;;;37.13;19.08;;;5.50;99.90;;;;;;4979116;28;20242;-82
2021/12/04 09:09:11;;;;;;;43.00;19.38;;;5.50;99.90;;;;;;4980690;28;20411;-82
2021/12/04 09:11:42;;;;;;;38.35;19.52;;;5.60;99.90;;;;;;4981572;28;20127;-82
2021/12/04 09:14:10;;;;;;;40.70;20.38;;;5.60;99.90;;;;;;4964870;28;20067;-81
2021/12/04 09:16:37;;;;;;;39.80;21.23;;;5.60;99.90;;;;;;4968660;28;20563;-81
2021/12/04 09:19:03;;;;;;;39.28;21.95;;;5.70;99.90;;;;;;4986086;28;20362;-82
2021/12/04 09:21:29;;;;;;;44.80;23.88;;;5.70;99.90;;;;;;4987473;28;20051;-82
2021/12/04 09:24:13;;;;;;;44.97;24.15;;;5.70;99.90;;;;;;4976051;28;20893;-82
2021/12/04 10:14:38;;;;;;;43.95;23.48;;;6.00;99.90;;;;;;4930909;28;20048;-82
2021/12/04 10:22:05;;;;;;;49.85;26.70;;;6.10;99.90;;;;;;4962764;28;20121;-82
2021/12/04 10:32:46;;;;;;;42.15;23.73;;;6.10;99.90;;;;;;4954273;28;20044;-80
2021/12/04 10:35:20;;;;;;;41.83;23.95;;;6.10;99.90;;;;;;4977906;28;20059;-82
2021/12/04 10:37:56;;;;;;;;;;;6.10;99.90;;;;;;4963791;28;20048;-80
2021/12/04 10:40:27;;;;;;;41.45;21.63;;;6.10;99.90;;;;;;4983654;28;20754;-82
2021/12/04 10:42:58;;;;;;;37.97;20.90;;;6.00;99.90;;;;;;4961301;28;20098;-81
2021/12/04 10:45:34;;;;;;;39.25;21.98;;;6.10;99.90;;;;;;4971062;28;20389;-81
2021/12/04 10:48:04;;;;;;;44.80;23.67;;;6.10;99.90;;;;;;4981917;28;20456;-80
2021/12/04 10:50:36;;;;;;;41.50;22.63;;;6.10;99.90;;;;;;4965627;28;20542;-80
2021/12/04 10:53:06;;;;;;;44.67;25.30;;;6.10;99.90;;;;;;4984941;28;20775;-81
2021/12/04 11:04:10;;;;;;;47.90;26.20;;;6.20;99.90;;;;;;4963136;28;20330;-82
2021/12/04 11:42:03;;;;;;;72.78;34.50;;;5.90;99.90;;;;;;4964156;28;20048;-83
2021/12/04 11:44:47;;;;;;;68.65;34.08;;;5.90;99.90;;;;;;4962726;28;20840;-82
2021/12/04 11:47:14;;;;;;;65.28;33.78;;;5.90;99.90;;;;;;4969037;28;20278;-82
2021/12/04 11:49:40;;;;;;;76.65;34.33;;;6.00;99.90;;;;;;4972421;28;20796;-81
2021/12/04 11:52:18;;;;;;;92.88;37.38;;;5.90;99.90;;;;;;4974442;28;20059;-82
2021/12/04 11:54:58;;;;;;;78.53;35.30;;;6.00;99.90;;;;;;4963979;28;20067;-82
2021/12/04 11:57:33;;;;;;;75.15;34.88;;;6.10;99.90;;;;;;4961439;28;20057;-81
2021/12/04 12:00:17;;;;;;;76.03;33.78;;;6.20;99.90;;;;;;4966067;28;20048;-82
2021/12/04 12:02:43;;;;;;;69.50;34.55;;;6.30;99.90;;;;;;4962976;28;20052;-82
2021/12/04 12:05:15;;;;;;;65.15;33.22;;;6.30;99.90;;;;;;4966526;28;20505;-82
2021/12/04 12:07:56;;;;;;;61.17;32.42;;;6.40;99.90;;;;;;4955909;28;20245;-81
2021/12/04 12:10:26;;;;;;;66.13;32.40;;;6.40;99.90;;;;;;4963670;28;20055;-83
2021/12/04 12:12:55;;;;;;;60.78;30.90;;;6.40;99.90;;;;;;4963677;28;20148;-82
2021/12/04 12:15:31;;;;;;;61.35;33.22;;;6.40;99.90;;;;;;4982099;28;20470;-82
2021/12/04 12:18:13;;;;;;;63.70;33.47;;;6.30;99.90;;;;;;4983036;28;20059;-82
2021/12/04 12:23:13;;;;;;;61.42;33.10;;;6.30;99.90;;;;;;4981799;28;20056;-81
2021/12/04 12:31:58;;;;;;;60.83;32.17;;;6.20;99.90;;;;;;4965458;28;20420;-82
2021/12/04 12:37:22;;;;;;;68.28;33.05;;;6.10;99.90;;;;;;4976228;28;20117;-82
2021/12/04 12:40:09;;;;;;;62.67;31.23;;;6.10;99.90;;;;;;4982612;28;20071;-81
2021/12/04 12:42:38;;;;;;;60.55;32.47;;;6.10;99.90;;;;;;4981873;28;20784;-81
2021/12/04 12:45:35;;;;;;;66.20;31.80;;;6.00;99.90;;;;;;4952576;28;20777;-81
2021/12/04 12:48:07;;;;;;;65.65;31.63;;;6.00;99.90;;;;;;4948233;28;20064;-82
2021/12/04 12:50:38;;;;;;;63.22;33.15;;;6.00;99.90;;;;;;4980451;28;20563;-82
2021/12/04 12:53:08;;;;;;;59.58;32.72;;;6.10;99.90;;;;;;4962322;28;20044;-82
2021/12/04 12:55:35;;;;;;;68.43;33.17;;;6.00;99.90;;;;;;4970824;28;20152;-82
2021/12/04 12:58:18;;;;;;;61.03;33.53;;;6.10;99.90;;;;;;4971894;28;20052;-82
2021/12/04 13:12:08;;;;;;;65.57;33.10;;;6.10;99.90;;;;;;4966094;28;20053;-83
2021/12/04 13:14:49;;;;;;;65.28;32.50;;;6.10;99.90;;;;;;4970550;28;20155;-84
2021/12/04 13:17:25;;;;;;;71.50;33.45;;;6.10;99.90;;;;;;4980974;28;20139;-83
2021/12/04 13:19:55;;;;;;;65.68;31.80;;;6.10;99.90;;;;;;4955197;28;20055;-82
2021/12/04 13:22:27;;;;;;;61.67;30.90;;;6.10;99.90;;;;;;4987968;28;20106;-83
2021/12/04 13:24:55;;;;;;;66.82;32.42;;;6.10;99.90;;;;;;4969318;28;20075;-83
2021/12/04 13:29:52;;;;;;;59.35;30.85;;;6.10;99.90;;;;;;4969856;28;21066;-84
2021/12/04 13:32:28;;;;;;;63.85;32.83;;;6.10;99.90;;;;;;4959080;28;20055;-83
2021/12/04 13:34:54;;;;;;;60.80;30.98;;;6.20;99.90;;;;;;4974638;28;21096;-83
2021/12/04 13:37:25;;;;;;;62.75;32.13;;;6.20;99.90;;;;;;4993143;28;20083;-83
2021/12/04 13:39:56;;;;;;;59.00;31.13;;;6.30;99.90;;;;;;4961189;28;20052;-82
2021/12/04 13:42:23;;;;;;;55.35;30.80;;;6.30;99.90;;;;;;4979629;28;20040;-82
2021/12/04 13:44:48;;;;;;;59.53;31.98;;;6.30;99.90;;;;;;4965954;28;20056;-83
2021/12/04 13:47:14;;;;;;;57.28;30.50;;;6.10;99.90;;;;;;4981228;28;20079;-82
2021/12/04 13:49:57;;;;;;;52.25;29.70;;;6.20;99.90;;;;;;4959752;28;20048;-83
2021/12/04 13:52:25;;;;;;;55.05;30.33;;;6.20;99.90;;;;;;4952487;28;20049;-83
2021/12/04 13:54:56;;;;;;;53.55;31.58;;;6.20;99.90;;;;;;4972741;28;20406;-83
2021/12/04 13:57:22;;;;;;;57.70;31.88;;;6.20;99.90;;;;;;4975111;28;20060;-83
2021/12/04 13:59:48;;;;;;;53.72;30.50;;;6.20;99.90;;;;;;4975555;28;20084;-82
2021/12/04 14:02:28;;;;;;;57.45;31.15;;;6.10;99.90;;;;;;4976276;28;20511;-82
2021/12/04 14:05:07;;;;;;;57.13;30.88;;;6.20;99.90;;;;;;4993635;28;20119;-82
2021/12/04 14:07:35;;;;;;;55.45;29.65;;;6.10;99.90;;;;;;4981131;28;20053;-82
2021/12/04 14:10:18;;;;;;;58.97;30.08;;;6.10;99.90;;;;;;4963180;28;20056;-82
2021/12/04 14:12:45;;;;;;;64.05;30.35;;;6.20;99.90;;;;;;4994399;28;20506;-82
2021/12/04 14:15:14;;;;;;;55.10;29.83;;;6.10;99.90;;;;;;4975198;28;20044;-81
2021/12/04 14:17:40;;;;;;;56.20;30.08;;;6.10;99.90;;;;;;4978602;28;20056;-82
2021/12/04 14:20:08;;;;;;;57.97;29.77;;;6.10;99.90;;;;;;4981455;28;20266;-82
2021/12/04 14:22:33;;;;;;;53.70;29.17;;;6.10;99.90;;;;;;4996721;28;20521;-81
2021/12/04 14:25:02;;;;;;;52.83;28.70;;;6.10;99.90;;;;;;4970095;28;20074;-82
2021/12/04 14:27:31;;;;;;;54.38;29.23;;;6.10;99.90;;;;;;4977149;28;20079;-82
2021/12/04 14:30:11;;;;;;;60.47;29.45;;;6.10;99.90;;;;;;4974263;28;20719;-81
2021/12/04 14:32:39;;;;;;;52.70;29.58;;;6.10;99.90;;;;;;4991604;28;20045;-81
2021/12/04 14:35:18;;;;;;;52.63;30.40;;;6.10;99.90;;;;;;4972366;28;20603;-81
2021/12/04 14:37:51;;;;;;;52.85;29.05;;;6.10;99.90;;;;;;4975423;28;20056;-81
2021/12/04 14:40:21;;;;;;;55.87;29.53;;;6.10;99.90;;;;;;4993483;28;20765;-82
2021/12/04 14:42:49;;;;;;;48.58;29.67;;;6.00;99.90;;;;;;4978324;28;20779;-81
2021/12/04 14:45:26;;;;;;;52.65;29.25;;;6.00;99.90;;;;;;4969627;28;20045;-81
2021/12/04 14:48:07;;;;;;;53.65;30.38;;;6.10;99.90;;;;;;4978138;28;20056;-82
2021/12/04 14:50:36;;;;;;;54.72;31.40;;;6.00;99.90;;;;;;4972279;28;20072;-82
2021/12/04 14:53:04;;;;;;;54.70;29.88;;;6.00;99.90;;;;;;4973090;28;20502;-81
2021/12/04 14:55:33;;;;;;;50.00;30.08;;;6.00;99.90;;;;;;4987825;28;20074;-81
2021/12/04 14:58:01;;;;;;;50.47;30.13;;;6.00;99.90;;;;;;4986027;28;20052;-81
2021/12/04 15:00:30;;;;;;;49.97;30.33;;;6.00;99.90;;;;;;4996194;28;20150;-82
2021/12/04 15:02:58;;;;;;;54.17;30.02;;;6.00;99.90;;;;;;4981954;28;20410;-82
2021/12/04 15:05:35;;;;;;;42.13;28.35;;;6.00;99.90;;;;;;4985556;28;20189;-82
2021/12/04 15:08:13;;;;;;;47.15;27.85;;;5.90;99.90;;;;;;4981536;28;20045;-82
2021/12/04 15:10:41;;;;;;;44.88;27.92;;;5.90;99.90;;;;;;4969714;28;20854;-82
2021/12/04 15:13:20;;;;;;;45.38;27.70;;;6.00;99.90;;;;;;4963364;28;20053;-82
2021/12/04 15:15:46;;;;;;;47.75;27.83;;;6.00;99.90;;;;;;4960984;28;20562;-81
2021/12/04 15:18:14;;;;;;;38.00;24.67;;;6.00;99.90;;;;;;4982422;28;20056;-81
2021/12/04 15:20:52;;;;;;;34.50;24.70;;;6.00;99.90;;;;;;4981632;28;20128;-82
2021/12/04 15:23:20;;;;;;;186.00;31.17;;;6.00;99.90;;;;;;4966829;28;20262;-82
2021/12/04 15:25:49;;;;;;;51.95;24.77;;;6.00;99.90;;;;;;4963955;28;20051;-82
2021/12/04 15:28:22;;;;;;;40.95;24.50;;;6.00;99.90;;;;;;4982724;28;20585;-82
2021/12/04 15:30:51;;;;;;;41.17;23.67;;;6.00;99.90;;;;;;4990476;28;20930;-83
2021/12/04 15:33:35;;;;;;;38.30;23.60;;;6.00;99.90;;;;;;4983938;28;20045;-82
2021/12/04 15:36:01;;;;;;;42.30;24.35;;;6.00;99.90;;;;;;4963461;28;20165;-82
2021/12/04 15:38:43;;;;;;;38.58;25.30;;;6.00;99.90;;;;;;4977240;28;20040;-82
2021/12/04 15:44:00;;;;;;;38.63;23.55;;;6.00;99.90;;;;;;4973646;28;20071;-82
2021/12/04 15:54:29;;;;;;;33.25;23.90;;;6.00;99.90;;;;;;4969176;28;20060;-82
2021/12/04 15:56:55;;;;;;;35.13;25.45;;;6.00;99.90;;;;;;4978464;28;20748;-82
2021/12/04 15:59:27;;;;;;;38.42;25.52;;;6.00;99.90;;;;;;4943108;28;20129;-81
2021/12/04 16:01:57;;;;;;;40.35;25.67;;;6.00;99.90;;;;;;4976506;28;20048;-81
2021/12/04 16:04:31;;;;;;;36.70;25.98;;;6.00;99.90;;;;;;4974844;28;20753;-81
2021/12/04 16:06:59;;;;;;;35.97;25.73;;;5.90;99.90;;;;;;4960418;28;20056;-82
2021/12/04 16:09:33;;;;;;;36.38;26.45;;;5.90;99.90;;;;;;4956623;28;20051;-81